Map

Track Data

SID SEASON NUMBER BASIN SUBBASIN NAME ISO_TIME NATURE LAT LON WMO_WIND WMO_PRES WMO_AGENCY TRACK_TYPE DIST2LAND LANDFALL IFLAG USA_AGENCY USA_ATCF_ID USA_LAT USA_LON USA_RECORD USA_STATUS USA_WIND USA_PRES USA_SSHS USA_R34_NE USA_R34_SE USA_R34_SW USA_R34_NW USA_R50_NE USA_R50_SE USA_R50_SW USA_R50_NW USA_R64_NE USA_R64_SE USA_R64_SW USA_R64_NW USA_POCI USA_ROCI USA_RMW USA_EYE TOKYO_LAT TOKYO_LON TOKYO_GRADE TOKYO_WIND TOKYO_PRES TOKYO_R50_DIR TOKYO_R50_LONG TOKYO_R50_SHORT TOKYO_R30_DIR TOKYO_R30_LONG TOKYO_R30_SHORT TOKYO_LAND CMA_LAT CMA_LON CMA_CAT CMA_WIND CMA_PRES HKO_LAT HKO_LON HKO_CAT HKO_WIND HKO_PRES NEWDELHI_LAT NEWDELHI_LON NEWDELHI_GRADE NEWDELHI_WIND NEWDELHI_PRES NEWDELHI_CI NEWDELHI_DP NEWDELHI_POCI REUNION_LAT REUNION_LON REUNION_TYPE REUNION_WIND REUNION_PRES REUNION_TNUM REUNION_CI REUNION_RMW REUNION_R34_NE REUNION_R34_SE REUNION_R34_SW REUNION_R34_NW REUNION_R50_NE REUNION_R50_SE REUNION_R50_SW REUNION_R50_NW REUNION_R64_NE REUNION_R64_SE REUNION_R64_SW REUNION_R64_NW BOM_LAT BOM_LON BOM_TYPE BOM_WIND BOM_PRES BOM_TNUM BOM_CI BOM_RMW BOM_R34_NE BOM_R34_SE BOM_R34_SW BOM_R34_NW BOM_R50_NE BOM_R50_SE BOM_R50_SW BOM_R50_NW BOM_R64_NE BOM_R64_SE BOM_R64_SW BOM_R64_NW BOM_ROCI BOM_POCI BOM_EYE BOM_POS_METHOD BOM_PRES_METHOD NADI_LAT NADI_LON NADI_CAT NADI_WIND NADI_PRES WELLINGTON_LAT WELLINGTON_LON WELLINGTON_WIND WELLINGTON_PRES DS824_LAT DS824_LON DS824_STAGE DS824_WIND DS824_PRES TD9636_LAT TD9636_LON TD9636_STAGE TD9636_WIND TD9636_PRES TD9635_LAT TD9635_LON TD9635_WIND TD9635_PRES TD9635_ROCI NEUMANN_LAT NEUMANN_LON NEUMANN_CLASS NEUMANN_WIND NEUMANN_PRES MLC_LAT MLC_LON MLC_CLASS MLC_WIND MLC_PRES USA_GUST BOM_GUST BOM_GUST_PER REUNION_GUST REUNION_GUST_PER USA_SEAHGT USA_SEARAD_NE USA_SEARAD_SE USA_SEARAD_SW USA_SEARAD_NW STORM_SPEED STORM_DIR
1969247N13131 1969 67 WP MM NOT_NAMED 1969-09-03 12:00:00 TS 12.5000 131.000 main 590 569 __O___________ -1 12.5000 131.000 0 1003 5 259
1969247N13131 1969 67 WP MM NOT_NAMED 1969-09-03 15:00:00 TS 12.4525 130.750 main 569 535 __P___________ -1 12.4525 130.750 0 1003 5 258
1969247N13131 1969 67 WP MM NOT_NAMED 1969-09-03 18:00:00 TS 12.4000 130.500 main 535 511 __O___________ -1 12.4000 130.500 0 1003 5 257
1969247N13131 1969 67 WP MM NOT_NAMED 1969-09-03 21:00:00 TS 12.3425 130.250 main 511 480 __P___________ -1 12.3425 130.250 0 1003 5 258
1969247N13131 1969 67 WP MM NOT_NAMED 1969-09-04 00:00:00 TS 12.3000 130.000 main 480 459 __O___________ -1 12.3000 130.000 0 1003 5 263
1969247N13131 1969 67 WP MM NOT_NAMED 1969-09-04 03:00:00 TS 12.2850 129.750 main 459 428 __P___________ -1 12.2850 129.750 0 1003 5 270
1969247N13131 1969 67 WP MM NOT_NAMED 1969-09-04 06:00:00 TS 12.3000 129.500 main 428 408 __O___________ -1 12.3000 129.500 0 1003 5 277
1969247N13131 1969 67 WP MM NOT_NAMED 1969-09-04 09:00:00 TS 12.3425 129.250 main 408 381 __P___________ -1 12.3425 129.250 0 1003 5 282
1969247N13131 1969 67 WP MM NOT_NAMED 1969-09-04 12:00:00 TS 12.4000 129.000 main 381 359 __O___________ -1 12.4000 129.000 0 1003 5 279
1969247N13131 1969 67 WP MM NOT_NAMED 1969-09-04 15:00:00 TS 12.4200 128.750 main 348 327 __P___________ -1 12.4200 128.750 0 1003 5 282
1969247N13131 1969 67 WP MM NOT_NAMED 1969-09-04 18:00:00 TS 12.5000 128.500 main 327 307 __O___________ -1 12.5000 128.500 0 1003 6 300
1969247N13131 1969 67 WP MM NOT_NAMED 1969-09-04 21:00:00 TS 12.7050 128.250 main 309 282 __P___________ -1 12.7050 128.250 0 1002 7 316
1969247N13131 1969 67 WP MM NOT_NAMED 1969-09-05 00:00:00 TS 13.0000 128.000 main 285 273 __O___________ -1 13.0000 128.000 0 19 1002 8 323
1969247N13131 1969 67 WP MM NOT_NAMED 1969-09-05 03:00:00 TS 13.3425 127.757 main 278 267 __P___________ -1 13.3425 127.757 0 19 1002 9 325
1969247N13131 1969 67 WP MM NOT_NAMED 1969-09-05 06:00:00 TS 13.7000 127.500 main 274 272 __O___________ -1 13.7000 127.500 0 19 1002 9 320
1969247N13131 1969 67 WP MM NOT_NAMED 1969-09-05 09:00:00 TS 14.0075 127.192 main 272 272 __P___________ -1 14.0075 127.192 0 19 1002 8 316
1969247N13131 1969 67 WP MM NOT_NAMED 1969-09-05 12:00:00 TS 14.3000 126.900 main 272 256 __O___________ -1 14.3000 126.900 0 19 1002 8 318
1969247N13131 1969 67 WP MM NOT_NAMED 1969-09-05 15:00:00 TS 14.5850 126.662 main 260 247 __P___________ -1 14.5850 126.662 0 21 1001 7 327
1969247N13131 1969 67 WP MM NOT_NAMED 1969-09-05 18:00:00 TS 14.9000 126.500 main 252 252 __O___________ -1 14.9000 126.500 1 23 1000 7 342
1969247N13131 1969 67 WP MM NOT_NAMED 1969-09-05 21:00:00 TS 15.2850 126.427 main 266 266 __P___________ -1 15.2850 126.427 1 23 1000 8 353
1969247N13131 1969 67 WP MM NOT_NAMED 1969-09-06 00:00:00 TS 15.7000 126.400 main 294 294 __O___________ -1 15.7000 126.400 1 23 1000 8 356
1969247N13131 1969 67 WP MM NOT_NAMED 1969-09-06 03:00:00 TS 16.1075 126.365 main 325 325 __P___________ -1 16.1075 126.365 1 23 1000 8 353
1969247N13131 1969 67 WP MM NOT_NAMED 1969-09-06 06:00:00 TS 16.5000 126.300 main 352 352 __O___________ -1 16.5000 126.300 1 23 1000 8 345
1969247N13131 1969 67 WP MM NOT_NAMED 1969-09-06 09:00:00 TS 16.8500 126.150 main 383 372 __P___________ -1 16.8500 126.150 1 23 1000 8 338
1969247N13131 1969 67 WP MM NOT_NAMED 1969-09-06 12:00:00 TS 17.2000 126.000 main 372 365 __O___________ -1 17.2000 126.000 1 23 1000 8 345
1969247N13131 1969 67 WP MM NOT_NAMED 1969-09-06 15:00:00 TS 17.6000 125.942 main 367 367 __P___________ -1 17.6000 125.942 1 26 999 8 353
1969247N13131 1969 67 WP MM NOT_NAMED 1969-09-06 18:00:00 TS 18.0000 125.900 main 377 369 __O___________ -1 18.0000 125.900 1 29 998 8 350
1969247N13131 1969 67 WP MM NOT_NAMED 1969-09-06 21:00:00 TS 18.3425 125.800 main 369 358 __P___________ -1 18.3425 125.800 1 29 998 7 345
1969247N13131 1969 67 WP MM NOT_NAMED 1969-09-07 00:00:00 TS 18.7000 125.700 main 360 352 __O___________ -1 18.7000 125.700 1 29 998 8 348
1969247N13131 1969 67 WP MM NOT_NAMED 1969-09-07 03:00:00 TS 19.1350 125.620 main 356 356 __P___________ -1 19.1350 125.620 1 29 998 9 354
1969247N13131 1969 67 WP MM NOT_NAMED 1969-09-07 06:00:00 TS 19.6000 125.600 main 372 372 __O___________ -1 19.6000 125.600 1 29 998 10 7
1969247N13131 1969 67 WP MM NOT_NAMED 1969-09-07 09:00:00 TS 20.0799 125.752 main 413 413 __P___________ -1 20.0799 125.752 1 29 998 9 12
1969247N13131 1969 67 WP MM NOT_NAMED 1969-09-07 12:00:00 TS 20.5000 125.800 main 435 429 __O___________ -1 20.5000 125.800 1 29 998 8 342
1969247N13131 1969 67 WP MM NOT_NAMED 1969-09-07 15:00:00 TS 20.8551 125.483 main 436 405 __P___________ -1 20.8551 125.483 1 29 998 9 304
1969247N13131 1969 67 WP MM NOT_NAMED 1969-09-07 18:00:00 TS 21.0000 125.000 main 405 360 __O___________ -1 21.0000 125.000 1 29 998 9 268
1969247N13131 1969 67 WP MM NOT_NAMED 1969-09-07 21:00:00 TS 20.8248 124.572 main 360 301 __P___________ -1 20.8248 124.572 1 29 998 10 239
1969247N13131 1969 67 WP MM NOT_NAMED 1969-09-08 00:00:00 TS 20.5000 124.100 main 301 252 __O___________ -1 20.5000 124.100 1 29 998 11 239
1969247N13131 1969 67 WP MM NOT_NAMED 1969-09-08 03:00:00 TS 20.2425 123.557 main 243 193 __P___________ -1 20.2425 123.557 1 29 999 11 244
1969247N13131 1969 67 WP MM NOT_NAMED 1969-09-08 06:00:00 TS 20.0000 123.000 main 193 158 __O___________ -1 20.0000 123.000 1 29 1000 11 246
1969247N13131 1969 67 WP MM NOT_NAMED 1969-09-08 09:00:00 TS 19.7901 122.485 main 158 134 __P___________ -1 19.7901 122.485 1 26 1000 10 247
1969247N13131 1969 67 WP MM NOT_NAMED 1969-09-08 12:00:00 TS 19.6000 122.000 main 134 __O___________ -1 19.6000 122.000 1 23 1000 10 247

Digital Typhoon Data and Search

About IBTrACS Database

This database is a web-friendly format of International Best Track Archive for Climate Stewardship (IBTrACS), a global best track data archive curated by NOAA dating back to 1842.

Updated: 2021-11-26